메인 페이지
METAR-TAF:

METAR-TAF

공항 :

탤러디가, 앨라배마, 미국

위도: 33-34-10N, 경도: 086-03-04W, 고도: 160m

현재 날씨관측

예보는 15분 전, 16:15시(UTC)에 발표되었습니다.
7kt, 순간 최대 풍속 16kt
온도 -1°C
습도 59%
기압 1033 hPa
시정: 16.1km
고도 2500ft 상공 구름 보통

METAR: KASN 201615Z AUTO 36007G16KT 10SM SCT025 M01/M08 A3049 RMK AO2 T10111078

시각: 10:30 (16:30 UTC)

예보

예보는 5 시간 7분 전, 11:23시(UTC)에 발표되었습니다.
예보 대상 시간: 20일 12시부터 21일 12시까지 (UTC)
7kt
시정: 10km
고도 25000ft 상공 구름 보통
21일 0300시부터 (UTC)
5kt
시정: 10km
고도 12000ft 상공 구름 조금
21일 0600시부터 (UTC)
5kt
시정: 10km
고도 8000ft 상공 구름 많음

TAF: KASN 201123Z 2012/2112 35007KT P6SM SCT250 FM210300 35005KT P6SM FEW120 FM210600 35005KT P6SM BKN080

4,000개 이상의 공항 관측 자료 및 예보 (METAR 및 TAF 보고).

지도상에서 검색 가능한 기상관측소가 노란 점과 빨간 점으로 표시되어 있습니다.

기상관측소 명을 보려면 표시 위로 마우스를 이동하세요.

날씨 관측과 예보를 보려면 클릭하세요.

지도 변경 : 확대하려면 엑스 표시가 있는 녹색 버튼, 축소하려면 빼기 표시가 있는 녹색 버튼, 다음 페이지의 지도를 보려면 녹색 화살표를 클릭하세요.


METAR-TAF: